createdAt,value
2022-09-04T00:02:05.920Z,16.04
2022-09-04T00:04:47.517Z,16.02
2022-09-04T00:08:09.041Z,15.85
2022-09-04T00:10:59.938Z,15.77
2022-09-04T00:13:46.379Z,15.66
2022-09-04T00:16:28.232Z,15.66
2022-09-04T00:19:07.212Z,15.59
2022-09-04T00:22:04.006Z,15.57
2022-09-04T00:24:56.561Z,15.47
2022-09-04T00:27:24.190Z,15.46
2022-09-04T00:30:07.927Z,15.42
2022-09-04T00:33:08.496Z,15.37
2022-09-04T00:35:41.190Z,15.35
2022-09-04T00:38:30.645Z,15.40
2022-09-04T00:41:04.483Z,15.39
2022-09-04T00:43:55.432Z,15.41
2022-09-04T00:46:47.855Z,15.44
2022-09-04T00:49:47.515Z,15.47
2022-09-04T00:52:38.797Z,15.51
2022-09-04T00:55:16.097Z,15.56
2022-09-04T00:57:49.140Z,15.59
2022-09-04T01:00:20.172Z,15.62
2022-09-04T01:03:04.092Z,15.62
2022-09-04T01:05:40.585Z,15.61
2022-09-04T01:08:20.450Z,15.52
2022-09-04T01:11:08.568Z,15.43
2022-09-04T01:14:29.664Z,15.35
2022-09-04T01:17:29.353Z,15.28
2022-09-04T01:19:58.955Z,15.34
2022-09-04T01:22:47.265Z,15.34
2022-09-04T01:25:30.109Z,15.38
2022-09-04T01:28:14.747Z,15.36
2022-09-04T01:30:47.395Z,15.36
2022-09-04T01:33:44.956Z,15.35
2022-09-04T01:36:20.013Z,15.37
2022-09-04T01:38:53.714Z,15.33
2022-09-04T01:41:31.016Z,15.33
2022-09-04T01:44:00.328Z,15.27
2022-09-04T01:46:42.062Z,15.18
2022-09-04T01:49:30.626Z,15.14
2022-09-04T01:52:02.795Z,15.09
2022-09-04T01:54:48.214Z,15.07
2022-09-04T01:57:32.247Z,15.01
2022-09-04T02:00:14.322Z,14.99
2022-09-04T02:02:41.417Z,14.96
2022-09-04T02:05:13.766Z,14.95
2022-09-04T02:07:48.048Z,14.94
2022-09-04T02:10:34.470Z,14.89
2022-09-04T02:13:35.996Z,14.95
2022-09-04T02:16:24.944Z,14.93
2022-09-04T02:19:37.141Z,14.82
2022-09-04T02:22:07.209Z,14.80
2022-09-04T02:24:40.479Z,14.78
2022-09-04T02:27:38.897Z,14.76
2022-09-04T02:30:11.891Z,14.80
2022-09-04T02:33:06.195Z,14.83
2022-09-04T02:35:46.948Z,14.72
2022-09-04T02:38:30.837Z,14.67
2022-09-04T02:40:58.293Z,14.70
2022-09-04T02:44:00.416Z,14.69
2022-09-04T02:46:27.100Z,14.70
2022-09-04T02:49:08.635Z,14.67
2022-09-04T02:51:45.801Z,14.72
2022-09-04T02:54:50.849Z,14.73
2022-09-04T02:58:08.079Z,14.71
2022-09-04T03:00:54.421Z,14.72
2022-09-04T03:03:30.015Z,14.65
2022-09-04T03:06:05.135Z,14.59
2022-09-04T03:08:36.333Z,14.60
2022-09-04T03:11:08.992Z,14.60
2022-09-04T03:13:57.746Z,14.57
2022-09-04T03:16:48.395Z,14.55
2022-09-04T03:19:20.183Z,14.63
2022-09-04T03:21:55.621Z,14.54
2022-09-04T03:24:56.263Z,14.60
2022-09-04T03:27:23.291Z,14.52
2022-09-04T03:30:08.364Z,14.54
2022-09-04T03:32:56.679Z,14.53
2022-09-04T03:35:33.868Z,14.60
2022-09-04T03:38:24.156Z,14.50
2022-09-04T03:41:00.616Z,14.42
2022-09-04T03:43:51.220Z,14.44
2022-09-04T03:46:41.055Z,14.47
2022-09-04T03:49:15.216Z,14.49
2022-09-04T03:52:09.931Z,14.38
2022-09-04T03:54:58.352Z,14.33
2022-09-04T03:57:30.714Z,14.23
2022-09-04T04:00:03.669Z,14.25
2022-09-04T04:02:54.414Z,14.25
2022-09-04T04:05:39.137Z,14.22
2022-09-04T04:08:23.796Z,14.18
2022-09-04T04:11:13.127Z,14.20
2022-09-04T04:14:04.535Z,14.11
2022-09-04T04:16:56.202Z,14.14
2022-09-04T04:19:44.401Z,14.02
2022-09-04T04:22:41.466Z,13.96
2022-09-04T04:25:25.583Z,13.99
2022-09-04T04:28:20.111Z,13.95
2022-09-04T04:30:54.668Z,13.95
2022-09-04T04:33:48.670Z,13.88
2022-09-04T04:36:34.650Z,13.85
2022-09-04T04:39:09.985Z,13.80
2022-09-04T04:42:06.585Z,13.79
2022-09-04T04:45:10.862Z,13.86
2022-09-04T04:47:57.144Z,14.02
2022-09-04T04:51:05.398Z,14.07
2022-09-04T04:53:57.424Z,14.21
2022-09-04T04:57:03.878Z,14.26
2022-09-04T04:59:34.744Z,14.08
2022-09-04T05:02:14.022Z,14.01
2022-09-04T05:05:07.179Z,13.91
2022-09-04T05:08:06.324Z,13.86
2022-09-04T05:10:51.389Z,13.80
2022-09-04T05:13:36.419Z,13.76
2022-09-04T05:16:19.076Z,13.77
2022-09-04T05:19:02.671Z,13.80
2022-09-04T05:21:37.278Z,13.84
2022-09-04T05:24:11.253Z,13.84
2022-09-04T05:26:53.240Z,13.85
2022-09-04T05:29:29.307Z,13.93
2022-09-04T05:32:05.027Z,14.11
2022-09-04T05:35:04.119Z,14.27
2022-09-04T05:37:44.256Z,14.41
2022-09-04T05:40:24.840Z,14.39
2022-09-04T05:43:02.922Z,14.31
2022-09-04T05:45:44.763Z,14.50
2022-09-04T05:48:20.637Z,14.42
2022-09-04T05:51:05.298Z,14.56
2022-09-04T05:53:50.844Z,14.52
2022-09-04T05:56:33.272Z,14.41
2022-09-04T05:59:09.110Z,14.36
2022-09-04T06:01:58.772Z,14.38
2022-09-04T06:04:46.647Z,14.42
2022-09-04T06:07:27.638Z,14.49
2022-09-04T06:10:03.750Z,14.63
2022-09-04T06:12:52.371Z,14.66
2022-09-04T06:15:40.547Z,14.76
2022-09-04T06:18:17.307Z,14.85
2022-09-04T06:20:59.770Z,14.99
2022-09-04T06:23:57.675Z,15.06
2022-09-04T06:26:57.895Z,15.36
2022-09-04T06:29:37.716Z,15.33
2022-09-04T06:32:14.499Z,15.49
2022-09-04T06:34:49.050Z,15.39
2022-09-04T06:37:33.619Z,15.36
2022-09-04T06:40:15.311Z,15.58
2022-09-04T06:42:56.305Z,15.77
2022-09-04T06:45:23.020Z,15.91
2022-09-04T06:48:08.492Z,16.00
2022-09-04T06:50:49.136Z,16.13
2022-09-04T06:54:04.248Z,16.26
2022-09-04T06:57:11.040Z,16.30
2022-09-04T06:59:59.552Z,16.35
2022-09-04T07:02:29.028Z,16.45
2022-09-04T07:05:14.397Z,16.47
2022-09-04T07:08:03.217Z,16.50
2022-09-04T07:10:43.665Z,16.54
2022-09-04T07:13:23.688Z,16.64
2022-09-04T07:16:14.885Z,16.70
2022-09-04T07:18:59.604Z,16.82
2022-09-04T07:21:42.356Z,16.86
2022-09-04T07:24:50.464Z,16.89
2022-09-04T07:27:42.835Z,16.92
2022-09-04T07:30:15.199Z,17.05
2022-09-04T07:32:53.930Z,17.15
2022-09-04T07:35:51.175Z,17.23
2022-09-04T07:38:29.372Z,17.20
2022-09-04T07:41:20.074Z,17.38
2022-09-04T07:43:55.102Z,17.40
2022-09-04T07:46:47.211Z,17.53
2022-09-04T07:49:32.358Z,17.65
2022-09-04T07:52:07.668Z,17.74
2022-09-04T07:55:13.433Z,17.82
2022-09-04T07:57:42.814Z,17.98
2022-09-04T08:00:15.468Z,18.12
2022-09-04T08:03:17.053Z,18.28
2022-09-04T08:06:19.638Z,18.49
2022-09-04T08:09:28.888Z,18.76
2022-09-04T08:12:09.261Z,18.94
2022-09-04T08:14:52.472Z,19.01
2022-09-04T08:17:49.427Z,19.19
2022-09-04T08:20:39.112Z,19.42
2022-09-04T08:23:36.982Z,19.71
2022-09-04T08:26:14.273Z,19.93
2022-09-04T08:29:12.653Z,20.03
2022-09-04T08:31:46.870Z,20.12
2022-09-04T08:34:39.048Z,20.22
2022-09-04T08:37:25.077Z,20.45
2022-09-04T08:40:34.949Z,20.74
2022-09-04T08:43:39.792Z,20.90
2022-09-04T08:46:31.870Z,21.01
2022-09-04T08:49:10.973Z,21.43
2022-09-04T08:52:09.756Z,21.81
2022-09-04T08:55:01.929Z,22.29
2022-09-04T08:57:43.584Z,22.65
2022-09-04T09:00:14.458Z,23.05
2022-09-04T09:03:06.490Z,23.21
2022-09-04T09:05:53.651Z,23.49
2022-09-04T09:08:23.341Z,23.46
2022-09-04T09:11:08.569Z,23.03
2022-09-04T09:14:20.255Z,22.30
2022-09-04T09:16:55.761Z,22.23
2022-09-04T09:19:45.686Z,22.00
2022-09-04T09:22:49.775Z,22.08
2022-09-04T09:25:20.884Z,22.20
2022-09-04T09:28:23.473Z,22.34
2022-09-04T09:31:27.105Z,21.96
2022-09-04T09:34:16.984Z,21.51
2022-09-04T09:36:53.567Z,21.91
2022-09-04T09:39:43.924Z,21.85
2022-09-04T09:42:28.776Z,21.87
2022-09-04T09:45:13.437Z,22.09
2022-09-04T09:47:59.150Z,22.43
2022-09-04T09:50:48.497Z,22.37
2022-09-04T09:53:46.849Z,22.42
2022-09-04T09:56:42.033Z,22.55
2022-09-04T09:59:32.114Z,22.18
2022-09-04T10:02:23.730Z,21.89
2022-09-04T10:05:08.593Z,21.60
2022-09-04T10:08:35.503Z,21.37
2022-09-04T10:11:17.526Z,21.24
2022-09-04T10:13:53.529Z,21.61
2022-09-04T10:16:38.993Z,21.55
2022-09-04T10:19:43.229Z,21.40
2022-09-04T10:22:31.705Z,21.37
2022-09-04T10:25:35.565Z,21.64
2022-09-04T10:28:17.414Z,22.12
2022-09-04T10:31:35.173Z,22.40
2022-09-04T10:34:07.619Z,22.72
2022-09-04T10:36:37.115Z,23.21
2022-09-04T10:39:51.699Z,23.47
2022-09-04T10:42:43.912Z,23.03
2022-09-04T10:45:17.144Z,22.82
2022-09-04T10:48:12.653Z,22.89
2022-09-04T10:51:02.013Z,22.79
2022-09-04T10:53:54.787Z,22.64
2022-09-04T10:56:35.463Z,22.62
2022-09-04T10:59:10.397Z,22.86
2022-09-04T11:02:09.639Z,22.63
2022-09-04T11:04:44.483Z,22.18
2022-09-04T11:07:28.853Z,22.09
2022-09-04T11:10:13.798Z,22.17
2022-09-04T11:13:03.885Z,22.43
2022-09-04T11:15:56.373Z,22.76
2022-09-04T11:19:04.380Z,22.82
2022-09-04T11:21:39.999Z,22.85
2022-09-04T11:24:23.517Z,23.08
2022-09-04T11:27:26.367Z,23.18
2022-09-04T11:30:12.193Z,23.32
2022-09-04T11:33:04.241Z,23.37
2022-09-04T11:35:45.235Z,23.31
2022-09-04T11:38:43.877Z,23.46
2022-09-04T11:41:57.346Z,23.51
2022-09-04T11:45:05.816Z,23.73
2022-09-04T11:48:00.142Z,23.62
2022-09-04T11:50:27.075Z,23.88
2022-09-04T11:53:20.260Z,24.15
2022-09-04T11:56:08.675Z,24.22
2022-09-04T11:58:47.209Z,23.78
2022-09-04T12:01:27.057Z,23.82
2022-09-04T12:04:05.166Z,23.81
2022-09-04T12:06:54.115Z,23.90
2022-09-04T12:09:31.758Z,23.98
2022-09-04T12:12:08.255Z,24.04
2022-09-04T12:14:48.755Z,23.76
2022-09-04T12:17:34.812Z,23.93
2022-09-04T12:20:24.315Z,23.99
2022-09-04T12:23:19.230Z,24.10
2022-09-04T12:25:58.078Z,24.21
2022-09-04T12:28:45.810Z,24.27
2022-09-04T12:31:35.735Z,24.46
2022-09-04T12:34:28.748Z,24.60
2022-09-04T12:37:11.446Z,24.84
2022-09-04T12:39:53.328Z,24.92
2022-09-04T12:42:26.920Z,24.95
2022-09-04T12:45:02.947Z,25.14
2022-09-04T12:47:57.221Z,25.05
2022-09-04T12:50:32.750Z,24.91
2022-09-04T12:53:12.840Z,24.96
2022-09-04T12:55:50.788Z,24.93
2022-09-04T12:58:34.521Z,25.03
2022-09-04T13:01:10.781Z,24.87
2022-09-04T13:03:45.533Z,25.00
2022-09-04T13:06:40.050Z,24.96
2022-09-04T13:09:23.178Z,24.78
2022-09-04T13:11:59.217Z,24.88
2022-09-04T13:14:42.845Z,24.78
2022-09-04T13:17:27.463Z,24.80
2022-09-04T13:20:08.723Z,24.86
2022-09-04T13:22:47.267Z,24.42
2022-09-04T13:25:23.178Z,24.67
2022-09-04T13:27:57.491Z,24.66
2022-09-04T13:30:25.686Z,24.81
2022-09-04T13:33:20.078Z,24.69
2022-09-04T13:36:02.535Z,24.85
2022-09-04T13:38:46.620Z,25.13
2022-09-04T13:41:54.956Z,24.81
2022-09-04T13:44:21.723Z,25.19
2022-09-04T13:47:09.162Z,25.52
2022-09-04T13:49:55.318Z,25.73
2022-09-04T13:52:43.231Z,25.76
2022-09-04T13:55:14.365Z,25.77
2022-09-04T13:58:02.789Z,25.50
2022-09-04T14:00:32.266Z,25.54
2022-09-04T14:03:11.039Z,25.68
2022-09-04T14:05:38.146Z,25.49
2022-09-04T14:08:08.837Z,25.70
2022-09-04T14:11:19.981Z,25.39
2022-09-04T14:14:13.643Z,25.15
2022-09-04T14:16:41.866Z,25.03
2022-09-04T14:19:17.573Z,24.90
2022-09-04T14:22:05.491Z,24.87
2022-09-04T14:24:59.356Z,24.98
2022-09-04T14:27:39.560Z,24.81
2022-09-04T14:30:13.829Z,24.60
2022-09-04T14:33:07.251Z,24.31
2022-09-04T14:35:53.075Z,24.64
2022-09-04T14:38:49.486Z,25.00
2022-09-04T14:41:54.477Z,25.16
2022-09-04T14:44:39.295Z,25.19
2022-09-04T14:47:34.229Z,25.10
2022-09-04T14:50:01.533Z,25.13
2022-09-04T14:52:35.471Z,24.94
2022-09-04T14:55:06.946Z,24.81
2022-09-04T14:57:36.676Z,24.60
2022-09-04T15:00:10.956Z,24.65
2022-09-04T15:03:02.522Z,24.73
2022-09-04T15:05:51.620Z,24.61
2022-09-04T15:08:26.884Z,24.55
2022-09-04T15:10:57.373Z,24.56
2022-09-04T15:13:32.206Z,24.64
2022-09-04T15:16:20.166Z,24.65
2022-09-04T15:18:58.354Z,24.72
2022-09-04T15:21:43.906Z,24.82
2022-09-04T15:24:25.793Z,24.82
2022-09-04T15:27:17.289Z,24.71
2022-09-04T15:29:57.812Z,24.83
2022-09-04T15:32:26.928Z,24.59
2022-09-04T15:35:15.938Z,24.73
2022-09-04T15:37:48.322Z,24.67
2022-09-04T15:40:31.224Z,24.64
2022-09-04T15:43:01.698Z,24.56
2022-09-04T15:45:40.872Z,24.44
2022-09-04T15:48:35.456Z,24.39
2022-09-04T15:51:22.784Z,24.35
2022-09-04T15:54:08.234Z,24.27
2022-09-04T15:56:39.437Z,24.24
2022-09-04T15:59:20.555Z,24.21
2022-09-04T16:02:12.686Z,24.26
2022-09-04T16:05:05.723Z,24.23
2022-09-04T16:07:51.118Z,24.28
2022-09-04T16:10:30.272Z,24.32
2022-09-04T16:13:01.648Z,24.37
2022-09-04T16:15:43.250Z,24.29
2022-09-04T16:18:16.079Z,24.33
2022-09-04T16:20:51.770Z,24.26
2022-09-04T16:23:28.773Z,24.25
2022-09-04T16:25:58.276Z,24.22
2022-09-04T16:28:31.773Z,24.21
2022-09-04T16:31:06.574Z,24.54
2022-09-04T16:33:33.516Z,25.19
2022-09-04T16:36:13.933Z,25.62
2022-09-04T16:38:59.868Z,25.77
2022-09-04T16:41:37.653Z,25.89
2022-09-04T16:44:14.177Z,26.07
2022-09-04T16:47:04.751Z,25.81
2022-09-04T16:49:39.092Z,25.47
2022-09-04T16:52:21.327Z,25.36
2022-09-04T16:54:55.003Z,25.42
2022-09-04T16:57:42.539Z,25.89
2022-09-04T17:00:14.442Z,25.93
2022-09-04T17:02:51.881Z,25.26
2022-09-04T17:05:28.814Z,24.63
2022-09-04T17:08:04.929Z,24.14
2022-09-04T17:10:36.513Z,23.71
2022-09-04T17:13:12.248Z,23.38
2022-09-04T17:15:53.194Z,23.00
2022-09-04T17:18:22.666Z,22.71
2022-09-04T17:22:24.969Z,22.47
2022-09-04T17:28:58.087Z,22.28
2022-09-04T17:29:08.974Z,22.09
2022-09-04T17:29:47.727Z,21.82
2022-09-04T17:36:39.029Z,21.63
2022-09-04T17:40:38.375Z,21.39
2022-09-04T17:40:57.153Z,21.19
2022-09-04T17:41:36.383Z,21.08
2022-09-04T17:44:22.402Z,20.92
2022-09-04T17:47:07.072Z,20.80
2022-09-04T17:49:35.118Z,20.68
2022-09-04T17:52:09.007Z,20.55
2022-09-04T17:54:48.863Z,20.45
2022-09-04T17:57:28.953Z,20.37
2022-09-04T18:00:06.695Z,20.24
2022-09-04T18:02:56.308Z,20.17
2022-09-04T18:05:31.559Z,20.07
2022-09-04T18:08:13.774Z,19.99
2022-09-04T18:10:49.670Z,19.90
2022-09-04T18:13:36.756Z,19.82
2022-09-04T18:16:16.286Z,19.75
2022-09-04T18:18:47.165Z,19.70
2022-09-04T18:21:26.920Z,19.62
2022-09-04T18:24:07.497Z,19.57
2022-09-04T18:26:41.696Z,19.48
2022-09-04T18:30:35.309Z,19.42
2022-09-04T18:37:25.130Z,19.36
2022-09-04T18:37:25.847Z,19.32
2022-09-04T18:37:59.830Z,19.28
2022-09-04T18:44:58.523Z,19.24
2022-09-04T18:50:24.469Z,19.23
2022-09-04T18:50:30.442Z,19.18
2022-09-04T18:50:45.240Z,19.16
2022-09-04T18:52:00.532Z,19.13
2022-09-04T18:54:39.690Z,19.08
2022-09-04T18:57:20.568Z,19.01
2022-09-04T18:59:54.930Z,18.98
2022-09-04T19:02:43.872Z,19.00
2022-09-04T19:05:20.343Z,18.97
2022-09-04T19:08:05.362Z,18.94
2022-09-04T19:10:45.343Z,18.90
2022-09-04T19:13:19.517Z,18.85
2022-09-04T19:16:10.648Z,18.89
2022-09-04T19:19:00.826Z,18.80
2022-09-04T19:21:40.848Z,18.77
2022-09-04T19:24:32.087Z,18.80
2022-09-04T19:27:27.210Z,18.75
2022-09-04T19:30:18.750Z,18.66
2022-09-04T19:32:59.754Z,18.58
2022-09-04T19:35:50.091Z,18.52
2022-09-04T19:45:34.831Z,18.47
2022-09-04T19:46:04.421Z,18.35
2022-09-04T19:46:14.313Z,18.39
2022-09-04T19:47:40.405Z,18.38
2022-09-04T19:53:32.832Z,18.34
2022-09-04T19:53:38.928Z,18.30
2022-09-04T19:56:30.734Z,18.24
2022-09-04T19:59:26.864Z,18.15
2022-09-04T20:02:02.824Z,18.13
2022-09-04T20:04:41.207Z,18.04
2022-09-04T20:07:32.448Z,17.92
2022-09-04T20:10:04.684Z,17.92
2022-09-04T20:12:44.119Z,17.86
2022-09-04T20:15:22.436Z,17.82
2022-09-04T20:18:19.782Z,17.72
2022-09-04T20:20:58.197Z,17.68
2022-09-04T20:23:52.348Z,17.58
2022-09-04T20:26:30.782Z,17.55
2022-09-04T20:29:20.800Z,17.58
2022-09-04T20:31:52.940Z,17.54
2022-09-04T20:34:39.006Z,17.58
2022-09-04T20:37:23.638Z,17.54
2022-09-04T20:39:59.486Z,17.54
2022-09-04T20:42:35.894Z,17.52
2022-09-04T20:48:55.129Z,17.63
2022-09-04T20:52:42.762Z,17.63
2022-09-04T20:53:06.041Z,17.54
2022-09-04T20:54:06.022Z,17.45
2022-09-04T21:00:39.273Z,17.33
2022-09-04T21:03:14.259Z,17.25
2022-09-04T21:03:23.114Z,17.21
2022-09-04T21:05:32.863Z,17.18
2022-09-04T21:08:06.575Z,17.16
2022-09-04T21:10:41.017Z,17.13
2022-09-04T21:13:23.181Z,17.13
2022-09-04T21:15:59.282Z,17.15
2022-09-04T21:19:27.893Z,17.13
2022-09-04T21:22:32.645Z,16.98
2022-09-04T21:25:27.901Z,16.96
2022-09-04T21:28:32.049Z,16.89
2022-09-04T21:31:17.374Z,16.73
2022-09-04T21:33:45.642Z,16.66
2022-09-04T21:36:38.217Z,16.62
2022-09-04T21:39:41.453Z,16.58
2022-09-04T21:42:20.805Z,16.59
2022-09-04T21:45:19.041Z,16.50
2022-09-04T21:48:02.016Z,16.52
2022-09-04T21:50:46.839Z,16.53
2022-09-04T21:53:41.138Z,16.46
2022-09-04T22:00:48.950Z,16.38
2022-09-04T22:02:45.024Z,16.32
2022-09-04T22:03:09.619Z,16.33
2022-09-04T22:05:56.636Z,16.34
2022-09-04T22:13:30.678Z,16.27
2022-09-04T22:13:46.008Z,16.26
2022-09-04T22:14:37.424Z,16.22
2022-09-04T22:17:24.913Z,16.15
2022-09-04T22:20:08.645Z,16.20
2022-09-04T22:22:56.809Z,16.19
2022-09-04T22:25:47.985Z,16.16
2022-09-04T22:29:00.099Z,16.17
2022-09-04T22:31:29.688Z,16.15
2022-09-04T22:34:15.007Z,16.15
2022-09-04T22:37:12.144Z,16.07
2022-09-04T22:40:13.010Z,16.03
2022-09-04T22:43:01.805Z,15.99
2022-09-04T22:45:41.404Z,15.96
2022-09-04T22:48:32.733Z,15.96
2022-09-04T22:51:06.083Z,15.94
2022-09-04T22:54:17.799Z,15.86
2022-09-04T22:56:57.389Z,15.77
2022-09-04T23:00:01.729Z,15.72
2022-09-04T23:06:14.039Z,15.83
2022-09-04T23:13:42.784Z,15.66
2022-09-04T23:14:02.318Z,15.59
2022-09-04T23:15:17.235Z,15.65
2022-09-04T23:19:50.159Z,15.63
2022-09-04T23:26:32.847Z,15.43
2022-09-04T23:26:41.908Z,15.35
2022-09-04T23:27:27.971Z,15.28
2022-09-04T23:30:04.958Z,15.33
2022-09-04T23:32:35.412Z,15.32
2022-09-04T23:35:27.590Z,15.34
2022-09-04T23:38:24.128Z,15.28
2022-09-04T23:40:53.670Z,15.29
2022-09-04T23:43:30.901Z,15.18
2022-09-04T23:46:13.380Z,15.09
2022-09-04T23:49:18.258Z,15.15
2022-09-04T23:52:05.118Z,15.17
2022-09-04T23:54:56.896Z,15.21
2022-09-04T23:57:55.812Z,15.19
